Totem Lake, Washington
Current Conditions -  °F | °C
As of 2:53 AM on Wednesday 22 Oct 2014 (Local Time) from KBFI Reporting Station
Light Rain Light Rain  
Wind Chill: 58°   Ceiling: 5500
Heat Index: 58°   Visibility: 10mi
Dew Point: 49°   Wind: 8mph
Humidity: 72%   Direction: 150°SSE
Pressure: 29.67"   Gusts: NA
Location:  47.7179°N, 122.204°W
Report Text: KBFI 220953Z 15007KT 10SM -RA BKN055 OVC075 14/09 A2967 RMK AO2 RAE0858B30 SLP048 P0002 T01440094
Loading
Personal Weather Stations






























Interactive Weather Map
Tropical Storm Tracking
New forecast layout! Learn more

10-Day Weather Forecast

Advertisements
Track Severe Weather on mobile